createdAt,value
2022-09-13T00:01:19.013Z,24.59
2022-09-13T00:04:01.428Z,24.67
2022-09-13T00:06:48.258Z,24.68
2022-09-13T00:09:35.145Z,24.70
2022-09-13T00:12:15.967Z,24.70
2022-09-13T00:15:04.317Z,24.72
2022-09-13T00:17:44.980Z,24.69
2022-09-13T00:20:33.071Z,24.63
2022-09-13T00:23:14.058Z,24.61
2022-09-13T00:26:14.562Z,24.65
2022-09-13T00:29:02.499Z,24.63
2022-09-13T00:31:49.343Z,24.56
2022-09-13T00:34:30.374Z,24.46
2022-09-13T00:37:18.875Z,24.39
2022-09-13T00:40:01.062Z,24.36
2022-09-13T00:42:48.095Z,24.34
2022-09-13T00:45:30.033Z,24.29
2022-09-13T00:48:29.499Z,24.28
2022-09-13T00:51:14.003Z,24.29
2022-09-13T00:54:04.239Z,24.26
2022-09-13T00:56:53.520Z,24.40
2022-09-13T00:59:52.090Z,24.39
2022-09-13T01:02:35.055Z,24.45
2022-09-13T01:05:27.834Z,24.36
2022-09-13T01:08:23.246Z,24.13
2022-09-13T01:11:07.570Z,24.09
2022-09-13T01:13:58.003Z,24.02
2022-09-13T01:16:39.184Z,23.95
2022-09-13T01:19:28.710Z,23.89
2022-09-13T01:22:14.698Z,23.89
2022-09-13T01:25:46.009Z,23.82
2022-09-13T01:28:51.120Z,23.81
2022-09-13T01:32:00.108Z,23.80
2022-09-13T01:34:52.029Z,23.75
2022-09-13T01:38:13.034Z,23.79
2022-09-13T01:41:18.124Z,23.72
2022-09-13T01:44:44.011Z,23.68
2022-09-13T01:47:59.032Z,23.61
2022-09-13T01:50:53.014Z,23.56
2022-09-13T01:53:44.355Z,23.53
2022-09-13T01:56:40.022Z,23.45
2022-09-13T01:59:35.994Z,23.43
2022-09-13T02:02:28.105Z,23.38
2022-09-13T02:05:20.204Z,23.32
2022-09-13T02:08:31.411Z,23.26
2022-09-13T02:11:22.508Z,23.33
2022-09-13T02:14:14.101Z,23.37
2022-09-13T02:17:19.151Z,23.36
2022-09-13T02:20:05.248Z,23.29
2022-09-13T02:23:00.170Z,23.44
2022-09-13T02:25:44.085Z,23.43
2022-09-13T02:28:42.181Z,23.29
2022-09-13T02:31:29.515Z,23.36
2022-09-13T02:34:30.727Z,23.53
2022-09-13T02:37:14.047Z,23.42
2022-09-13T02:40:07.289Z,23.41
2022-09-13T02:42:54.427Z,23.41
2022-09-13T02:46:08.383Z,23.34
2022-09-13T02:49:31.424Z,23.27
2022-09-13T02:52:47.231Z,23.26
2022-09-13T02:55:46.073Z,23.14
2022-09-13T02:58:49.555Z,23.05
2022-09-13T03:01:31.709Z,23.13
2022-09-13T03:04:18.152Z,23.21
2022-09-13T03:07:00.465Z,23.22
2022-09-13T03:10:01.195Z,23.20
2022-09-13T03:13:07.451Z,23.25
2022-09-13T03:16:17.277Z,23.08
2022-09-13T03:19:25.027Z,23.05
2022-09-13T03:22:16.214Z,23.03
2022-09-13T03:25:14.560Z,22.97
2022-09-13T03:28:01.316Z,22.92
2022-09-13T03:30:56.092Z,22.70
2022-09-13T03:34:03.998Z,22.51
2022-09-13T03:37:35.563Z,22.42
2022-09-13T03:40:22.311Z,22.40
2022-09-13T03:43:23.072Z,22.41
2022-09-13T03:46:06.905Z,22.42
2022-09-13T03:48:58.517Z,22.52
2022-09-13T03:51:40.244Z,22.53
2022-09-13T03:54:34.494Z,22.57
2022-09-13T03:57:23.306Z,22.59
2022-09-13T04:00:12.810Z,22.70
2022-09-13T04:02:53.209Z,22.65
2022-09-13T04:05:44.110Z,22.55
2022-09-13T04:08:38.108Z,22.52
2022-09-13T04:11:28.898Z,22.59
2022-09-13T04:14:12.235Z,22.68
2022-09-13T04:17:02.139Z,22.65
2022-09-13T04:19:47.194Z,22.68
2022-09-13T04:22:36.527Z,22.71
2022-09-13T04:25:17.425Z,22.71
2022-09-13T04:28:07.130Z,22.69
2022-09-13T04:30:55.715Z,22.67
2022-09-13T04:33:43.140Z,22.60
2022-09-13T04:36:24.297Z,22.78
2022-09-13T04:39:15.015Z,22.80
2022-09-13T04:41:58.030Z,22.60
2022-09-13T04:44:48.880Z,22.59
2022-09-13T04:47:29.251Z,22.50
2022-09-13T04:50:16.159Z,22.49
2022-09-13T04:52:59.564Z,22.44
2022-09-13T04:55:46.175Z,22.38
2022-09-13T04:58:28.250Z,22.28
2022-09-13T05:01:18.563Z,22.22
2022-09-13T05:03:59.261Z,22.18
2022-09-13T05:06:48.164Z,22.18
2022-09-13T05:09:35.260Z,22.21
2022-09-13T05:12:16.182Z,22.14
2022-09-13T05:15:03.641Z,22.28
2022-09-13T05:17:44.177Z,22.31
2022-09-13T05:20:33.439Z,22.41
2022-09-13T05:23:15.754Z,22.28
2022-09-13T05:26:09.461Z,22.04
2022-09-13T05:28:51.166Z,21.93
2022-09-13T05:31:44.279Z,22.01
2022-09-13T05:34:28.802Z,22.17
2022-09-13T05:37:17.096Z,22.05
2022-09-13T05:40:14.799Z,21.86
2022-09-13T05:43:02.441Z,21.76
2022-09-13T05:45:43.545Z,21.81
2022-09-13T05:48:32.189Z,21.88
2022-09-13T05:51:22.173Z,22.02
2022-09-13T05:54:11.301Z,22.26
2022-09-13T05:56:52.591Z,22.28
2022-09-13T05:59:40.610Z,22.27
2022-09-13T06:02:36.770Z,22.16
2022-09-13T06:05:17.342Z,22.17
2022-09-13T06:08:05.187Z,22.12
2022-09-13T06:10:46.702Z,22.06
2022-09-13T06:13:35.592Z,22.12
2022-09-13T06:16:18.386Z,22.10
2022-09-13T06:19:06.202Z,22.16
2022-09-13T06:21:50.592Z,22.23
2022-09-13T06:24:39.211Z,21.97
2022-09-13T06:27:20.312Z,21.91
2022-09-13T06:30:07.196Z,21.96
2022-09-13T06:32:50.959Z,22.05
2022-09-13T06:35:38.225Z,22.06
2022-09-13T06:38:19.305Z,22.08
2022-09-13T06:41:34.269Z,22.12
2022-09-13T06:44:16.527Z,22.18
2022-09-13T06:47:07.227Z,22.33
2022-09-13T06:49:48.753Z,22.38
2022-09-13T06:52:36.287Z,22.38
2022-09-13T06:55:18.819Z,22.50
2022-09-13T06:58:10.233Z,22.49
2022-09-13T07:00:55.441Z,22.57
2022-09-13T07:03:44.611Z,22.84
2022-09-13T07:06:31.362Z,22.77
2022-09-13T07:09:33.590Z,22.82
2022-09-13T07:12:20.766Z,22.91
2022-09-13T07:15:03.919Z,22.96
2022-09-13T07:17:50.450Z,23.11
2022-09-13T07:23:40.410Z,23.01
2022-09-13T07:26:22.759Z,23.07
2022-09-13T07:29:16.234Z,23.07
2022-09-13T07:32:01.305Z,23.10
2022-09-13T07:34:49.333Z,23.03
2022-09-13T07:37:30.971Z,23.12
2022-09-13T07:40:17.543Z,23.33
2022-09-13T07:42:58.999Z,23.37
2022-09-13T07:45:47.350Z,23.33
2022-09-13T07:48:32.756Z,23.46
2022-09-13T07:51:27.659Z,23.44
2022-09-13T07:54:12.638Z,23.53
2022-09-13T07:57:00.351Z,23.57
2022-09-13T07:59:42.917Z,23.55
2022-09-13T08:02:31.536Z,23.57
2022-09-13T08:05:12.263Z,23.59
2022-09-13T08:08:07.249Z,23.71
2022-09-13T08:10:57.281Z,23.78
2022-09-13T08:13:38.798Z,23.83
2022-09-13T08:16:34.532Z,23.86
2022-09-13T08:19:19.423Z,23.74
2022-09-13T08:22:06.649Z,23.72
2022-09-13T08:24:48.386Z,23.69
2022-09-13T08:27:35.910Z,23.67
2022-09-13T08:30:16.548Z,23.57
2022-09-13T08:33:09.268Z,23.58
2022-09-13T08:35:59.182Z,23.61
2022-09-13T08:38:46.551Z,23.64
2022-09-13T08:41:48.131Z,23.64
2022-09-13T08:44:51.727Z,23.70
2022-09-13T08:47:55.196Z,23.64
2022-09-13T08:50:46.042Z,23.63
2022-09-13T08:53:34.420Z,23.69
2022-09-13T08:56:31.314Z,23.73
2022-09-13T08:59:47.749Z,23.77
2022-09-13T09:03:03.675Z,23.81
2022-09-13T09:05:55.536Z,23.88
2022-09-13T09:09:07.321Z,23.91
2022-09-13T09:12:13.548Z,24.01
2022-09-13T09:15:22.740Z,24.03
2022-09-13T09:18:17.417Z,24.03
2022-09-13T09:21:01.667Z,24.09
2022-09-13T09:24:01.036Z,24.11
2022-09-13T09:26:42.313Z,24.18
2022-09-13T09:29:32.712Z,24.25
2022-09-13T09:32:43.294Z,24.26
2022-09-13T09:35:42.964Z,24.39
2022-09-13T09:38:44.329Z,24.49
2022-09-13T09:41:38.622Z,24.60
2022-09-13T09:44:41.464Z,24.70
2022-09-13T09:47:36.570Z,24.96
2022-09-13T09:50:23.137Z,25.12
2022-09-13T09:53:36.875Z,25.34
2022-09-13T09:56:31.329Z,25.51
2022-09-13T09:59:40.754Z,25.57
2022-09-13T10:02:28.480Z,25.60
2022-09-13T10:05:16.475Z,25.75
2022-09-13T10:08:03.712Z,26.03
2022-09-13T10:11:02.258Z,26.20
2022-09-13T10:13:43.707Z,26.12
2022-09-13T10:16:34.515Z,26.05
2022-09-13T10:19:31.740Z,25.99
2022-09-13T10:22:20.531Z,26.03
2022-09-13T10:25:02.351Z,26.02
2022-09-13T10:27:57.064Z,26.02
2022-09-13T10:30:51.374Z,26.05
2022-09-13T10:33:42.938Z,26.08
2022-09-13T10:36:51.248Z,26.25
2022-09-13T10:39:40.500Z,26.35
2022-09-13T10:42:30.376Z,26.48
2022-09-13T10:45:30.655Z,26.74
2022-09-13T10:48:21.392Z,26.84
2022-09-13T10:51:25.438Z,26.78
2022-09-13T10:54:31.943Z,26.57
2022-09-13T10:57:38.495Z,26.46
2022-09-13T11:00:32.370Z,26.52
2022-09-13T11:03:45.613Z,26.67
2022-09-13T11:07:01.877Z,26.78
2022-09-13T11:09:58.530Z,26.81
2022-09-13T11:16:29.568Z,26.90
2022-09-13T11:19:28.347Z,26.74
2022-09-13T11:23:07.250Z,26.67
2022-09-13T11:26:16.982Z,26.68
2022-09-13T11:29:24.553Z,26.57
2022-09-13T11:32:54.643Z,26.57
2022-09-13T11:36:08.652Z,26.62
2022-09-13T11:39:00.793Z,26.62
2022-09-13T11:42:07.493Z,26.58
2022-09-13T11:45:22.768Z,26.47
2022-09-13T11:48:29.703Z,26.50
2022-09-13T11:51:25.386Z,26.51
2022-09-13T11:54:36.494Z,26.39
2022-09-13T11:57:25.478Z,26.27
2022-09-13T12:00:30.235Z,26.30
2022-09-13T12:03:28.869Z,26.08
2022-09-13T12:06:30.523Z,25.92
2022-09-13T12:09:33.417Z,25.98
2022-09-13T12:12:26.484Z,25.97
2022-09-13T12:15:20.407Z,25.95
2022-09-13T12:18:17.598Z,25.94
2022-09-13T12:21:08.018Z,25.84
2022-09-13T12:24:08.834Z,25.68
2022-09-13T12:27:02.404Z,25.82
2022-09-13T12:30:20.564Z,26.03
2022-09-13T12:33:01.418Z,26.21
2022-09-13T12:36:06.596Z,26.27
2022-09-13T12:39:06.223Z,26.33
2022-09-13T12:42:23.518Z,26.73
2022-09-13T12:45:28.885Z,27.03
2022-09-13T12:48:21.352Z,26.76
2022-09-13T12:51:33.825Z,26.82
2022-09-13T12:54:22.620Z,26.82
2022-09-13T12:57:23.968Z,26.79
2022-09-13T13:00:19.633Z,26.74
2022-09-13T13:03:08.464Z,26.74
2022-09-13T13:06:01.535Z,26.85
2022-09-13T13:09:08.445Z,27.06
2022-09-13T13:12:00.190Z,27.40
2022-09-13T13:14:46.865Z,27.66
2022-09-13T13:17:53.621Z,27.89
2022-09-13T13:21:00.540Z,28.10
2022-09-13T13:23:48.744Z,28.29
2022-09-13T13:27:01.663Z,28.28
2022-09-13T13:29:49.575Z,28.14
2022-09-13T13:32:30.452Z,27.97
2022-09-13T13:35:51.023Z,27.86
2022-09-13T13:38:35.455Z,27.68
2022-09-13T13:41:41.760Z,27.65
2022-09-13T13:44:22.456Z,27.81
2022-09-13T13:47:16.968Z,27.94
2022-09-13T13:50:22.966Z,28.02
2022-09-13T13:53:27.574Z,27.97
2022-09-13T13:56:27.510Z,28.02
2022-09-13T13:59:34.882Z,28.16
2022-09-13T14:02:22.243Z,28.16
2022-09-13T14:05:45.572Z,28.19
2022-09-13T14:08:47.581Z,28.33
2022-09-13T14:12:20.403Z,28.51
2022-09-13T14:15:04.516Z,28.58
2022-09-13T14:18:29.582Z,28.67
2022-09-13T14:21:27.831Z,28.84
2022-09-13T14:24:24.772Z,29.02
2022-09-13T14:27:09.466Z,29.16
2022-09-13T14:30:04.464Z,29.14
2022-09-13T14:32:51.500Z,29.02
2022-09-13T14:35:46.638Z,29.06
2022-09-13T14:38:28.481Z,29.15
2022-09-13T14:41:22.612Z,29.18
2022-09-13T14:44:28.451Z,29.16
2022-09-13T14:47:37.230Z,29.18
2022-09-13T14:50:26.249Z,29.13
2022-09-13T14:53:21.603Z,29.01
2022-09-13T14:56:08.875Z,28.87
2022-09-13T14:59:06.675Z,28.71
2022-09-13T15:01:47.501Z,28.52
2022-09-13T15:04:41.076Z,28.39
2022-09-13T15:07:46.347Z,28.26
2022-09-13T15:10:48.499Z,28.24
2022-09-13T15:13:36.564Z,28.11
2022-09-13T15:16:37.726Z,28.06
2022-09-13T15:19:31.518Z,27.95
2022-09-13T15:22:20.858Z,27.83
2022-09-13T15:25:09.936Z,27.75
2022-09-13T15:27:51.711Z,27.68
2022-09-13T15:30:48.283Z,27.63
2022-09-13T15:33:34.391Z,27.60
2022-09-13T15:36:33.663Z,27.59
2022-09-13T15:39:21.677Z,27.58
2022-09-13T15:42:09.292Z,27.46
2022-09-13T15:44:51.403Z,27.44
2022-09-13T15:47:40.540Z,27.42
2022-09-13T15:50:37.071Z,27.37
2022-09-13T15:53:26.235Z,27.31
2022-09-13T15:56:08.703Z,27.21
2022-09-13T15:58:56.889Z,27.13
2022-09-13T16:01:37.709Z,26.98
2022-09-13T16:04:27.108Z,26.91
2022-09-13T16:07:08.682Z,26.81
2022-09-13T16:10:06.291Z,26.82
2022-09-13T16:12:55.259Z,26.79
2022-09-13T16:15:36.035Z,26.57
2022-09-13T16:18:23.263Z,26.19
2022-09-13T16:21:03.551Z,25.65
2022-09-13T16:23:52.644Z,25.41
2022-09-13T16:26:35.404Z,25.22
2022-09-13T16:29:22.712Z,25.18
2022-09-13T16:32:06.972Z,25.05
2022-09-13T16:34:57.763Z,24.96
2022-09-13T16:37:38.544Z,24.93
2022-09-13T16:40:26.861Z,24.84
2022-09-13T16:43:09.563Z,24.86
2022-09-13T16:45:57.665Z,24.93
2022-09-13T16:48:39.703Z,24.87
2022-09-13T16:51:28.368Z,24.77
2022-09-13T16:54:11.375Z,24.73
2022-09-13T16:57:01.766Z,24.78
2022-09-13T16:59:42.616Z,24.84
2022-09-13T17:02:30.436Z,24.91
2022-09-13T17:05:16.012Z,25.06
2022-09-13T17:08:03.815Z,24.83
2022-09-13T17:13:53.915Z,24.81
2022-09-13T17:16:52.811Z,24.74
2022-09-13T17:19:37.720Z,24.77
2022-09-13T17:22:25.669Z,24.78
2022-09-13T17:25:08.012Z,24.82
2022-09-13T17:27:57.615Z,24.84
2022-09-13T17:30:38.704Z,24.90
2022-09-13T17:33:25.771Z,24.91
2022-09-13T17:36:15.371Z,24.95
2022-09-13T17:39:05.403Z,24.78
2022-09-13T17:41:48.551Z,24.61
2022-09-13T17:44:37.012Z,24.59
2022-09-13T17:47:18.861Z,24.66
2022-09-13T17:50:06.006Z,24.64
2022-09-13T17:52:46.990Z,24.64
2022-09-13T17:55:34.624Z,24.59
2022-09-13T17:58:16.388Z,24.56
2022-09-13T18:01:16.020Z,24.52
2022-09-13T18:03:56.816Z,24.46
2022-09-13T18:06:50.856Z,24.42
2022-09-13T18:09:44.659Z,24.35
2022-09-13T18:12:32.288Z,24.27
2022-09-13T18:15:12.715Z,24.21
2022-09-13T18:18:00.697Z,24.17
2022-09-13T18:20:43.026Z,24.09
2022-09-13T18:23:33.878Z,24.09
2022-09-13T18:26:18.775Z,24.01
2022-09-13T18:29:11.907Z,23.97
2022-09-13T18:31:54.839Z,23.92
2022-09-13T18:34:43.631Z,23.89
2022-09-13T18:37:24.758Z,23.89
2022-09-13T18:40:20.662Z,23.82
2022-09-13T18:43:00.845Z,23.78
2022-09-13T18:45:47.655Z,23.73
2022-09-13T18:48:30.201Z,23.66
2022-09-13T18:51:25.088Z,23.60
2022-09-13T18:54:07.139Z,23.56
2022-09-13T18:56:55.098Z,23.55
2022-09-13T18:59:35.778Z,23.52
2022-09-13T19:02:23.165Z,23.54
2022-09-13T19:05:07.014Z,23.48
2022-09-13T19:07:56.126Z,23.48
2022-09-13T19:10:44.813Z,23.49
2022-09-13T19:13:26.036Z,23.49
2022-09-13T19:16:18.686Z,23.45
2022-09-13T19:19:00.412Z,23.40
2022-09-13T19:21:47.786Z,23.29
2022-09-13T19:24:29.061Z,23.25
2022-09-13T19:27:15.991Z,23.16
2022-09-13T19:29:58.845Z,23.16
2022-09-13T19:32:45.774Z,23.14
2022-09-13T19:35:28.216Z,23.18
2022-09-13T19:38:15.171Z,23.16
2022-09-13T19:41:06.796Z,23.09
2022-09-13T19:43:55.347Z,23.04
2022-09-13T19:46:45.102Z,23.04
2022-09-13T19:49:32.820Z,23.07
2022-09-13T19:52:15.437Z,23.16
2022-09-13T19:55:03.807Z,23.17
2022-09-13T19:57:48.164Z,23.30
2022-09-13T20:00:39.110Z,23.27
2022-09-13T20:03:20.080Z,23.28
2022-09-13T20:06:14.144Z,23.36
2022-09-13T20:08:54.685Z,23.35
2022-09-13T20:12:14.274Z,23.35
2022-09-13T20:14:54.687Z,23.23
2022-09-13T20:17:41.823Z,23.14
2022-09-13T20:20:22.978Z,23.16
2022-09-13T20:23:14.462Z,23.29
2022-09-13T20:25:55.775Z,23.45
2022-09-13T20:28:42.945Z,23.31
2022-09-13T20:31:24.107Z,23.21
2022-09-13T20:34:16.593Z,23.18
2022-09-13T20:36:59.463Z,23.16
2022-09-13T20:39:48.941Z,23.01
2022-09-13T20:42:30.818Z,23.02
2022-09-13T20:45:21.326Z,23.20
2022-09-13T20:48:03.115Z,23.21
2022-09-13T20:50:49.978Z,23.25
2022-09-13T20:53:32.101Z,23.11
2022-09-13T20:56:24.275Z,23.09
2022-09-13T20:59:08.250Z,23.17
2022-09-13T21:01:54.979Z,23.13
2022-09-13T21:04:38.793Z,23.19
2022-09-13T21:07:46.144Z,23.02
2022-09-13T21:10:34.107Z,22.87
2022-09-13T21:13:13.835Z,23.02
2022-09-13T21:16:10.869Z,22.91
2022-09-13T21:19:00.879Z,22.97
2022-09-13T21:21:50.732Z,23.05
2022-09-13T21:24:32.888Z,22.97
2022-09-13T21:27:21.251Z,22.87
2022-09-13T21:30:03.490Z,22.76
2022-09-13T21:32:54.018Z,22.87
2022-09-13T21:35:34.895Z,22.98
2022-09-13T21:38:22.488Z,22.97
2022-09-13T21:41:09.671Z,22.86
2022-09-13T21:44:01.741Z,22.70
2022-09-13T21:46:46.636Z,22.71
2022-09-13T21:49:35.132Z,22.77
2022-09-13T21:52:16.739Z,22.63
2022-09-13T21:55:08.143Z,22.63
2022-09-13T21:57:49.940Z,22.56
2022-09-13T22:00:38.769Z,22.42
2022-09-13T22:03:20.261Z,22.53
2022-09-13T22:06:07.768Z,22.39
2022-09-13T22:08:50.938Z,22.34
2022-09-13T22:11:40.858Z,22.38
2022-09-13T22:14:26.797Z,22.46
2022-09-13T22:17:16.147Z,22.52
2022-09-13T22:19:57.035Z,22.54
2022-09-13T22:22:44.771Z,22.33
2022-09-13T22:25:27.678Z,22.25
2022-09-13T22:28:15.132Z,22.33
2022-09-13T22:30:57.989Z,22.30
2022-09-13T22:33:44.796Z,22.42
2022-09-13T22:36:25.910Z,22.45
2022-09-13T22:39:20.794Z,22.39
2022-09-13T22:42:01.895Z,22.22
2022-09-13T22:44:48.786Z,22.19
2022-09-13T22:47:29.976Z,22.21
2022-09-13T22:50:18.580Z,22.11
2022-09-13T22:53:00.410Z,21.93
2022-09-13T22:55:46.816Z,21.90
2022-09-13T22:58:27.942Z,21.81
2022-09-13T23:01:24.599Z,21.77
2022-09-13T23:04:08.993Z,21.62
2022-09-13T23:06:56.925Z,21.62
2022-09-13T23:09:44.818Z,21.68
2022-09-13T23:12:44.494Z,21.80
2022-09-13T23:15:31.919Z,21.80
2022-09-13T23:18:12.795Z,21.79
2022-09-13T23:21:03.671Z,21.92
2022-09-13T23:23:47.315Z,21.74
2022-09-13T23:26:36.042Z,21.71
2022-09-13T23:29:29.810Z,21.68
2022-09-13T23:32:18.182Z,21.66
2022-09-13T23:34:59.227Z,21.66
2022-09-13T23:37:45.919Z,21.62
2022-09-13T23:40:26.849Z,21.62
2022-09-13T23:43:14.017Z,21.65
2022-09-13T23:45:55.883Z,21.63
2022-09-13T23:48:45.925Z,21.57
2022-09-13T23:51:32.566Z,21.61
2022-09-13T23:54:22.028Z,21.51
2022-09-13T23:57:03.614Z,21.48
2022-09-13T23:59:50.923Z,21.55
